Time;durP1;ratioP1;P1;durP2;ratioP2;P2;SDS_P1;SDS_P2;PMS_P1;PMS_P2;Temp;Humidity;BMP_temperature;BMP_pressure;BME280_temperature;BME280_humidity;BME280_pressure;Samples;Min_cycle;Max_cycle;Signal;HPM_P1;HPM_P2
2021/03/30 00:00:00;;;;;;;7.30;2.17;;;;;;;4.38;63.14;100521.38;5053400;28;20118;-80
2021/03/30 00:02:27;;;;;;;4.00;1.95;;;;;;;4.23;63.52;100508.06;5051599;28;20474;-81
2021/03/30 00:04:53;;;;;;;3.53;2.00;;;;;;;4.32;64.04;100511.06;5052605;28;20056;-80
2021/03/30 00:07:20;;;;;;;2.75;1.67;;;;;;;4.48;63.49;100513.50;5053099;28;20106;-81
2021/03/30 00:09:46;;;;;;;6.15;2.53;;;;;;;4.58;63.12;100515.41;5052495;28;20053;-80
2021/03/30 00:12:13;;;;;;;6.05;2.33;;;;;;;4.65;62.98;100531.09;5054791;28;20115;-80
2021/03/30 00:17:14;;;;;;;6.60;1.87;;;;;;;4.35;63.16;100524.28;5069636;28;20048;-81
2021/03/30 00:19:41;;;;;;;3.55;2.03;;;;;;;4.17;64.17;100529.19;5069952;28;20136;-81
2021/03/30 00:22:08;;;;;;;2.67;1.90;;;;;;;3.87;64.60;100498.13;5064291;28;20556;-81
2021/03/30 00:24:34;;;;;;;5.28;2.20;;;;;;;4.05;64.47;100522.84;5063370;28;20156;-81
2021/03/30 00:27:00;;;;;;;6.60;2.42;;;;;;;4.18;64.25;100521.00;5072229;28;20055;-81
2021/03/30 00:29:46;;;;;;;6.13;2.13;;;;;;;4.08;64.64;100518.13;5154955;27;20379;-82
2021/03/30 00:32:14;;;;;;;5.47;2.33;;;;;;;4.04;64.70;100524.69;5150920;27;20110;-82
2021/03/30 00:34:40;;;;;;;5.47;2.17;;;;;;;3.89;65.19;100507.78;5127815;27;20692;-81
2021/03/30 00:37:07;;;;;;;3.63;2.30;;;;;;;3.83;65.63;100519.00;5128796;27;20079;-82
2021/03/30 00:39:34;;;;;;;5.10;2.30;;;;;;;3.76;64.94;100504.25;5115254;27;20485;-82
2021/03/30 00:42:00;;;;;;;3.50;1.95;;;;;;;3.59;65.42;100492.00;5140004;27;20058;-82
2021/03/30 00:44:27;;;;;;;5.05;2.45;;;;;;;3.72;65.22;100513.53;5137385;27;20096;-82
2021/03/30 00:46:55;;;;;;;3.00;2.20;;;;;;;3.59;65.07;100483.06;5132999;27;20081;-82
2021/03/30 00:49:21;;;;;;;7.97;1.92;;;;;;;3.76;64.56;100496.19;5139373;27;20136;-82
2021/03/30 00:51:49;;;;;;;5.25;2.20;;;;;;;3.70;64.98;100493.94;5128617;27;20054;-82
2021/03/30 00:54:16;;;;;;;3.95;2.03;;;;;;;3.72;64.94;100495.56;5130081;27;20062;-82
2021/03/30 00:56:43;;;;;;;6.25;2.25;;;;;;;3.66;64.70;100484.38;5122806;28;20575;-82
2021/03/30 00:59:10;;;;;;;5.03;2.25;;;;;;;3.49;65.80;100497.16;5128011;27;20052;-82
2021/03/30 01:01:37;;;;;;;4.43;2.03;;;;;;;3.41;66.74;100498.66;5128540;27;20058;-82
2021/03/30 01:04:05;;;;;;;4.78;2.00;;;;;;;3.56;64.98;100494.06;5129554;27;20051;-82
2021/03/30 01:06:31;;;;;;;3.25;1.85;;;;;;;3.71;65.14;100512.66;5135565;27;20045;-81
2021/03/30 01:09:12;;;;;;;5.72;2.63;;;;;;;3.47;65.50;100496.41;5128023;27;20054;-81
2021/03/30 01:11:49;;;;;;;4.38;2.08;;;;;;;3.47;65.36;100499.09;5114468;27;20047;-81
2021/03/30 01:14:32;;;;;;;4.35;2.35;;;;;;;3.29;66.17;100486.94;5111923;28;20057;-82
2021/03/30 01:17:06;;;;;;;4.30;2.08;;;;;;;3.12;67.01;100499.69;5127638;27;20039;-81
2021/03/30 01:20:13;;;;;;;3.17;2.33;;;;;;;3.14;66.90;100518.41;5144230;27;20133;-82
2021/03/30 01:23:15;;;;;;;7.15;2.45;;;;;;;3.03;67.11;100511.06;5079318;28;20048;-82
2021/03/30 01:25:47;;;;;;;4.45;1.90;;;;;;;2.93;66.83;100492.00;5127367;27;20059;-82
2021/03/30 01:28:22;;;;;;;7.90;2.20;;;;;;;3.00;66.83;100495.16;5127142;27;20046;-81
2021/03/30 01:30:51;;;;;;;3.22;2.33;;;;;;;3.17;66.17;100504.75;5127049;27;20414;-81
2021/03/30 01:33:23;;;;;;;4.32;2.30;;;;;;;3.25;66.23;100497.03;5128277;27;20047;-82
2021/03/30 01:35:55;;;;;;;11.27;2.35;;;;;;;3.27;66.80;100507.69;5126030;28;20403;-81
2021/03/30 01:38:23;;;;;;;4.05;2.08;;;;;;;3.22;66.55;100501.75;5132624;27;20376;-81
2021/03/30 01:40:52;;;;;;;2.85;2.17;;;;;;;3.06;66.98;100492.06;5115112;27;20047;-82
2021/03/30 01:43:21;;;;;;;3.00;2.13;;;;;;;3.03;67.39;100503.00;5112251;27;20047;-81
2021/03/30 01:45:53;;;;;;;5.28;2.10;;;;;;;2.87;67.35;100496.94;5098197;28;20431;-81
2021/03/30 01:48:21;;;;;;;2.85;2.10;;;;;;;3.09;66.88;100510.66;5117094;27;20043;-82
2021/03/30 01:50:49;;;;;;;3.38;1.95;;;;;;;2.97;66.95;100498.91;5112967;28;20500;-82
2021/03/30 01:53:17;;;;;;;2.78;1.90;;;;;;;2.93;67.56;100504.59;5113739;28;20056;-82
2021/03/30 01:55:45;;;;;;;3.35;2.22;;;;;;;2.93;67.12;100505.44;5114681;27;20506;-82
2021/03/30 01:58:13;;;;;;;4.60;2.50;;;;;;;3.02;66.82;100506.66;5113884;28;20529;-82
2021/03/30 02:00:40;;;;;;;4.82;2.20;;;;;;;2.96;67.04;100491.78;5110395;27;20047;-82
2021/03/30 02:03:08;;;;;;;3.33;2.15;;;;;;;2.86;67.66;100487.16;5113124;27;20105;-82
2021/03/30 02:05:34;;;;;;;3.63;2.10;;;;;;;2.70;67.53;100488.19;5112737;27;20059;-82
2021/03/30 02:08:02;;;;;;;3.58;2.13;;;;;;;2.47;68.43;100490.56;5113080;28;20051;-82
2021/03/30 02:10:33;;;;;;;4.95;2.17;;;;;;;2.42;68.30;100487.31;5114768;27;20407;-82
2021/03/30 02:13:01;;;;;;;3.58;2.10;;;;;;;2.50;68.14;100486.81;5114349;27;20401;-82
2021/03/30 02:15:28;;;;;;;2.88;1.95;;;;;;;2.68;68.25;100498.19;5112370;28;20044;-81
2021/03/30 02:18:02;;;;;;;3.70;2.30;;;;;;;2.67;68.94;100504.50;5115041;27;20067;-81
2021/03/30 02:20:34;;;;;;;4.03;2.75;;;;;;;2.42;68.35;100484.63;5130577;27;20063;-82
2021/03/30 02:23:04;;;;;;;6.03;2.45;;;;;;;2.53;68.23;100494.69;5105795;28;20051;-81
2021/03/30 02:25:32;;;;;;;4.60;2.55;;;;;;;2.52;68.34;100498.31;5112415;28;20048;-82
2021/03/30 02:28:04;;;;;;;3.97;2.17;;;;;;;2.55;68.51;100511.53;5112659;27;20123;-81
2021/03/30 02:30:34;;;;;;;3.60;2.38;;;;;;;2.41;68.25;100493.66;5112946;28;20126;-81
2021/03/30 02:33:01;;;;;;;;;;;;;;;2.41;68.70;100506.19;5115370;27;20043;-81
2021/03/30 02:35:28;;;;;;;3.28;2.30;;;;;;;2.18;69.18;100508.53;5111783;28;19920;-81
2021/03/30 02:37:57;;;;;;;3.22;2.03;;;;;;;2.23;69.17;100502.88;5116236;27;20042;-82
2021/03/30 02:40:25;;;;;;;5.07;2.30;;;;;;;2.21;68.21;100483.34;5131412;27;20551;-82
2021/03/30 02:42:54;;;;;;;3.53;2.03;;;;;;;2.24;69.02;100505.50;5111330;27;20073;-81
2021/03/30 02:45:24;;;;;;;9.50;2.97;;;;;;;2.16;68.74;100486.31;5108931;28;20070;-81
2021/03/30 02:47:52;;;;;;;2.70;2.20;;;;;;;2.22;69.54;100504.69;5112606;28;20350;-81
2021/03/30 02:50:19;;;;;;;4.53;2.45;;;;;;;2.08;69.43;100494.00;5112287;27;20055;-82
2021/03/30 02:52:47;;;;;;;5.35;2.47;;;;;;;2.01;69.17;100496.22;5091118;28;20406;-81
2021/03/30 02:55:15;;;;;;;6.25;2.65;;;;;;;2.02;69.53;100495.25;5109738;28;20047;-81
2021/03/30 02:57:42;;;;;;;3.67;2.05;;;;;;;2.21;68.95;100504.81;5112324;28;20043;-82
2021/03/30 03:00:10;;;;;;;7.33;2.43;;;;;;;2.27;69.09;100512.47;5117127;27;20045;-82
2021/03/30 03:02:38;;;;;;;4.82;2.70;;;;;;;2.20;68.92;100481.59;5111914;28;20421;-81
2021/03/30 03:05:06;;;;;;;4.07;2.20;;;;;;;2.30;68.04;100523.00;5111041;27;20605;-81
2021/03/30 03:07:33;;;;;;;6.78;2.47;;;;;;;1.78;69.36;100500.34;5109304;28;20134;-81
2021/03/30 03:10:01;;;;;;;3.07;2.13;;;;;;;1.65;70.76;100508.28;5112358;27;20051;-81
2021/03/30 03:12:30;;;;;;;4.60;2.30;;;;;;;1.90;70.36;100514.81;5111694;27;20124;-81
2021/03/30 03:14:58;;;;;;;5.23;2.17;;;;;;;1.96;69.88;100514.44;5111054;28;20100;-81
2021/03/30 03:17:28;;;;;;;7.10;2.33;;;;;;;1.93;70.54;100523.50;5110709;28;20519;-81
2021/03/30 03:20:24;;;;;;;3.85;2.75;;;;;;;2.00;70.05;100532.03;5104252;27;20532;-81
2021/03/30 03:22:51;;;;;;;5.90;2.50;;;;;;;1.88;70.14;100527.44;5122785;27;20480;-82
2021/03/30 03:25:18;;;;;;;4.53;2.55;;;;;;;1.80;70.11;100525.22;5091014;28;20048;-81
2021/03/30 03:28:28;;;;;;;4.13;2.60;;;;;;;1.73;70.77;100531.94;5095936;27;20050;-82
2021/03/30 03:30:54;;;;;;;;;;;;;;;1.75;70.32;100528.19;5091451;28;20056;-81
2021/03/30 03:33:21;;;;;;;4.37;1.97;;;;;;;1.83;70.36;100519.69;5098720;28;19919;-81
2021/03/30 03:36:02;;;;;;;3.47;2.07;;;;;;;1.96;70.29;100525.16;5110875;28;20398;-81
2021/03/30 03:38:28;;;;;;;5.83;2.53;;;;;;;1.81;70.66;100521.59;5112188;27;20052;-81
2021/03/30 03:40:55;;;;;;;4.67;2.10;;;;;;;1.73;71.06;100538.19;5114086;27;20052;-81
2021/03/30 03:43:22;;;;;;;6.93;2.67;;;;;;;1.61;70.80;100513.94;5109662;28;20052;-81
2021/03/30 03:45:48;;;;;;;3.27;2.10;;;;;;;1.67;70.25;100524.25;5114584;27;20042;-81
2021/03/30 03:48:15;;;;;;;4.27;2.00;;;;;;;1.62;70.69;100527.22;5131704;27;20047;-81
2021/03/30 03:50:41;;;;;;;5.77;2.20;;;;;;;1.48;70.60;100513.84;5114199;27;20070;-81
2021/03/30 03:53:11;;;;;;;5.10;2.30;;;;;;;1.45;71.31;100522.06;5111194;28;20039;-81
2021/03/30 03:55:41;;;;;;;2.75;1.83;;;;;;;1.33;71.66;100521.84;5108980;28;20128;-81
2021/03/30 03:58:13;;;;;;;3.33;2.33;;;;;;;1.50;70.84;100541.38;5109677;28;20047;-81
2021/03/30 04:00:41;;;;;;;2.80;2.10;;;;;;;1.44;71.22;100525.69;5114354;27;20047;-81
2021/03/30 04:03:15;;;;;;;3.23;2.03;;;;;;;1.26;71.68;100520.47;5110289;28;20040;-81
2021/03/30 04:05:47;;;;;;;6.30;2.40;;;;;;;1.34;71.78;100536.06;5109942;28;20512;-81
2021/03/30 04:08:19;;;;;;;4.47;2.50;;;;;;;1.29;71.94;100524.78;5114022;27;20036;-81
2021/03/30 04:10:53;;;;;;;3.53;2.13;;;;;;;1.31;71.25;100507.69;5111133;28;20138;-81
2021/03/30 04:13:21;;;;;;;7.00;2.67;;;;;;;1.16;72.38;100520.16;5109747;28;20095;-82
2021/03/30 04:15:49;;;;;;;6.00;2.73;;;;;;;1.32;71.67;100540.69;5110382;28;20108;-81
2021/03/30 04:18:15;;;;;;;4.73;2.77;;;;;;;1.18;71.58;100517.41;5110069;28;20047;-81
2021/03/30 04:20:42;;;;;;;4.73;2.27;;;;;;;1.29;70.66;100504.19;5112644;28;20047;-81
2021/03/30 04:23:08;;;;;;;2.90;2.00;;;;;;;1.44;70.36;100523.00;5109114;28;20449;-81
2021/03/30 04:25:35;;;;;;;3.37;1.97;;;;;;;1.30;70.86;100524.69;5109898;28;20487;-81
2021/03/30 04:28:03;;;;;;;4.60;2.40;;;;;;;1.32;70.81;100533.50;5110487;28;20051;-81
2021/03/30 04:30:29;;;;;;;4.60;2.53;;;;;;;1.24;70.79;100522.38;5103219;28;20051;-81
2021/03/30 04:32:56;;;;;;;5.37;2.53;;;;;;;1.24;71.34;100539.31;5110249;28;20062;-81
2021/03/30 04:35:23;;;;;;;4.97;2.13;;;;;;;1.05;71.84;100523.50;5109941;28;20048;-81
2021/03/30 04:37:49;;;;;;;5.53;2.17;;;;;;;1.22;71.74;100535.88;5110865;28;20044;-81
2021/03/30 04:40:17;;;;;;;3.47;2.43;;;;;;;1.15;71.78;100533.66;5111390;27;20051;-81
2021/03/30 04:42:43;;;;;;;5.33;2.47;;;;;;;0.96;71.86;100529.38;5110900;27;20632;-81
2021/03/30 04:45:15;;;;;;;3.37;2.20;;;;;;;0.85;72.47;100526.47;5108651;28;20040;-81
2021/03/30 04:47:41;;;;;;;2.87;2.10;;;;;;;0.99;71.18;100531.84;5110249;28;20052;-81
2021/03/30 04:50:10;;;;;;;6.43;2.40;;;;;;;1.05;71.12;100536.00;5110385;28;20071;-82
2021/03/30 04:52:36;;;;;;;7.37;2.80;;;;;;;0.98;72.35;100546.22;5120675;28;20047;-81
2021/03/30 04:55:03;;;;;;;4.63;2.20;;;;;;;0.84;72.33;100528.28;5124162;27;20047;-81
2021/03/30 04:57:33;;;;;;;9.53;2.30;;;;;;;0.86;73.16;100546.94;5116031;27;20055;-81
2021/03/30 05:00:05;;;;;;;3.63;2.20;;;;;;;0.64;72.73;100531.25;5110084;28;20043;-81
2021/03/30 05:02:32;;;;;;;5.97;2.43;;;;;;;0.78;73.52;100551.88;5113864;28;20495;-82
2021/03/30 05:05:02;;;;;;;5.47;2.37;;;;;;;0.76;72.76;100559.13;5113958;28;20044;-81
2021/03/30 05:07:32;;;;;;;5.47;2.77;;;;;;;0.93;72.46;100552.78;5109607;28;20552;-81
2021/03/30 05:09:58;;;;;;;3.17;2.30;;;;;;;0.83;73.03;100564.03;5110542;28;20048;-81
2021/03/30 05:12:25;;;;;;;6.23;2.97;;;;;;;0.83;72.91;100558.69;5109983;28;20484;-81
2021/03/30 05:14:54;;;;;;;4.77;2.20;;;;;;;0.95;72.46;100548.19;5127832;27;20108;-81
2021/03/30 05:17:49;;;;;;;10.53;2.57;;;;;;;1.00;72.06;100552.34;5124219;27;20044;-81
2021/03/30 05:20:19;;;;;;;5.93;2.90;;;;;;;1.05;72.03;100558.31;5070069;28;20052;-81
2021/03/30 05:23:10;;;;;;;5.13;2.90;;;;;;;0.87;73.16;100540.63;5109832;28;20047;-81
2021/03/30 05:25:44;;;;;;;5.63;2.77;;;;;;;0.80;73.57;100545.47;5067521;27;20143;-81
2021/03/30 05:28:20;;;;;;;5.77;2.73;;;;;;;0.92;73.35;100568.00;5120086;27;20096;-81
2021/03/30 05:30:50;;;;;;;3.30;2.27;;;;;;;0.82;73.45;100540.03;5131673;27;20051;-81
2021/03/30 05:33:17;;;;;;;13.00;2.60;;;;;;;0.84;72.98;100532.75;5126756;27;20044;-81
2021/03/30 05:35:49;;;;;;;3.83;2.57;;;;;;;1.10;73.31;100565.19;5113905;27;20138;-81
2021/03/30 05:38:16;;;;;;;5.10;2.90;;;;;;;1.18;72.51;100558.44;5110386;28;20138;-80
2021/03/30 05:40:43;;;;;;;5.67;3.07;;;;;;;1.17;72.81;100556.69;5113833;27;20043;-80
2021/03/30 05:43:13;;;;;;;7.20;2.47;;;;;;;1.14;72.92;100551.53;5113615;28;20074;-80
2021/03/30 05:45:43;;;;;;;5.20;2.90;;;;;;;1.24;73.08;100554.53;5099743;27;20051;-80
2021/03/30 05:48:15;;;;;;;5.18;2.38;;;;;;;1.37;72.72;100554.66;5120846;27;20043;-79
2021/03/30 05:50:45;;;;;;;8.07;3.00;;;;;;;1.41;72.09;100549.00;5113426;28;20084;-80
2021/03/30 05:53:11;;;;;;;;;;;;;;;1.58;72.64;100572.13;5113660;27;20048;-80
2021/03/30 05:55:41;;;;;;;6.30;2.30;;;;;;;1.61;72.50;100570.22;5106777;28;19919;-80
2021/03/30 05:58:09;;;;;;;4.93;2.85;;;;;;;2.15;71.02;100572.28;5116703;27;20075;-80
2021/03/30 06:00:38;;;;;;;4.70;2.90;;;;;;;2.45;70.05;100566.78;5113131;28;20465;-80
2021/03/30 06:03:06;;;;;;;4.33;2.93;;;;;;;2.88;68.93;100572.06;5120187;27;20048;-80
2021/03/30 06:05:33;;;;;;;5.03;3.13;;;;;;;3.46;67.39;100574.47;5112724;28;20067;-80
2021/03/30 06:08:01;;;;;;;4.90;3.33;;;;;;;3.91;64.94;100548.03;5112168;28;20072;-80
2021/03/30 06:10:32;;;;;;;3.77;2.77;;;;;;;4.00;64.63;100550.06;5113360;28;20505;-80
2021/03/30 06:13:01;;;;;;;5.05;2.78;;;;;;;4.39;63.35;100564.34;5112319;27;20456;-80
2021/03/30 06:15:32;;;;;;;4.75;2.95;;;;;;;4.47;62.93;100566.50;5117290;27;20131;-81
2021/03/30 06:18:01;;;;;;;10.45;3.13;;;;;;;4.38;63.72;100569.84;5112675;28;20074;-80
2021/03/30 06:20:30;;;;;;;4.97;3.67;;;;;;;4.20;64.49;100563.94;5113455;28;20471;-80
2021/03/30 06:22:58;;;;;;;9.95;3.10;;;;;;;4.16;64.69;100559.78;5109430;28;20043;-81
2021/03/30 06:25:39;;;;;;;8.32;3.33;;;;;;;4.30;64.08;100556.94;5094759;28;20052;-80
2021/03/30 06:28:19;;;;;;;15.02;3.38;;;;;;;4.40;64.14;100570.63;5110147;27;20435;-81
2021/03/30 06:31:03;;;;;;;20.77;5.05;;;;;;;4.49;63.53;100575.34;5112986;27;20459;-80
2021/03/30 06:33:31;;;;;;;24.00;4.55;;;;;;;4.90;62.00;100568.72;5112361;28;20138;-80
2021/03/30 06:36:16;;;;;;;16.30;4.60;;;;;;;5.34;60.94;100576.28;5119327;27;20108;-80
2021/03/30 06:39:01;;;;;;;13.80;4.40;;;;;;;5.50;60.40;100575.00;5092481;28;20131;-80
2021/03/30 06:41:42;;;;;;;16.98;4.70;;;;;;;6.09;58.41;100575.03;5107443;27;20490;-80
2021/03/30 06:44:28;;;;;;;10.95;4.28;;;;;;;6.33;57.26;100561.41;5132225;27;20409;-80
2021/03/30 06:47:05;;;;;;;9.90;3.75;;;;;;;6.48;56.12;100570.13;5125363;27;20070;-80
2021/03/30 06:49:33;;;;;;;9.30;3.47;;;;;;;6.59;55.71;100548.47;5112151;27;20100;-80
2021/03/30 06:52:11;;;;;;;10.35;3.53;;;;;;;6.90;54.91;100559.50;5119756;27;20051;-81
2021/03/30 06:54:49;;;;;;;12.93;3.95;;;;;;;6.97;55.36;100554.41;5126015;27;20104;-82
2021/03/30 06:57:35;;;;;;;17.25;5.88;;;;;;;7.28;55.14;100563.53;5096242;27;20047;-82
2021/03/30 07:00:13;;;;;;;9.70;3.90;;;;;;;7.26;55.79;100558.25;5111391;28;20050;-82
2021/03/30 07:02:51;;;;;;;7.95;4.22;;;;;;;7.26;56.06;100552.00;5094905;27;20078;-82
2021/03/30 07:05:26;;;;;;;14.32;3.50;;;;;;;7.08;56.22;100543.59;5101039;28;20412;-81
2021/03/30 07:07:55;;;;;;;12.10;3.88;;;;;;;7.38;55.94;100556.34;5111207;27;20055;-81
2021/03/30 07:10:23;;;;;;;13.57;3.75;;;;;;;7.59;55.08;100563.66;5128111;27;20051;-81
2021/03/30 07:12:51;;;;;;;7.80;3.25;;;;;;;7.52;55.97;100535.38;5109062;28;20047;-81
2021/03/30 07:18:21;;;;;;;19.27;5.22;;;;;;;7.80;55.03;100539.28;5099066;28;20570;-81
2021/03/30 07:20:57;;;;;;;14.93;4.30;;;;;;;7.67;55.41;100553.00;5126114;27;20051;-80
2021/03/30 07:23:28;;;;;;;8.15;3.30;;;;;;;7.90;54.78;100561.84;5114483;27;20047;-81
2021/03/30 07:25:59;;;;;;;12.63;3.63;;;;;;;8.12;54.04;100560.81;5111366;27;20047;-81
2021/03/30 07:32:20;;;;;;;;;;;;;;;8.47;54.05;100559.56;4993523;28;20169;-82
2021/03/30 07:34:49;;;;;;;;;;;;;;;8.64;53.80;100554.47;5046391;28;19978;-81
2021/03/30 07:37:22;;;;;;;14.43;3.33;;;;;;;8.44;54.65;100559.84;5106654;27;19969;-82
2021/03/30 07:39:53;;;;;;;21.83;5.10;;;;;;;8.56;55.12;100548.91;5112200;28;20051;-81
2021/03/30 07:42:23;;;;;;;13.05;4.78;;;;;;;8.80;54.81;100540.41;5112317;28;20548;-81
2021/03/30 07:45:06;;;;;;;12.93;3.92;;;;;;;8.91;54.96;100556.53;5111977;28;20108;-81
2021/03/30 07:47:41;;;;;;;11.15;3.78;;;;;;;9.22;55.30;100553.72;5114850;27;20059;-81
2021/03/30 07:50:15;;;;;;;11.25;4.07;;;;;;;9.33;55.37;100548.19;5100010;28;20123;-81
2021/03/30 07:52:46;;;;;;;8.57;4.05;;;;;;;9.59;54.34;100553.03;5125735;27;20043;-81
2021/03/30 07:55:20;;;;;;;11.00;3.65;;;;;;;9.69;54.64;100558.44;5138736;27;20119;-81
2021/03/30 07:58:06;;;;;;;8.75;3.65;;;;;;;9.87;53.93;100547.66;5130552;27;20072;-83
2021/03/30 08:00:47;;;;;;;10.57;3.50;;;;;;;9.91;54.25;100538.22;5133602;27;20086;-83
2021/03/30 08:03:19;;;;;;;8.52;3.38;;;;;;;10.09;54.52;100551.91;5134286;27;20051;-83
2021/03/30 08:06:03;;;;;;;11.60;3.53;;;;;;;10.32;54.11;100551.53;5140747;27;20069;-83
2021/03/30 08:08:30;;;;;;;9.95;3.15;;;;;;;10.43;54.10;100541.38;5153221;27;20506;-82
2021/03/30 08:10:59;;;;;;;11.48;3.17;;;;;;;10.67;53.27;100550.81;5146631;27;20055;-83
2021/03/30 08:13:31;;;;;;;36.10;5.35;;;;;;;10.70;52.29;100525.19;5134009;27;20082;-83
2021/03/30 08:16:00;;;;;;;8.90;3.35;;;;;;;10.98;51.96;100556.78;5140154;27;20043;-83
2021/03/30 08:18:30;;;;;;;4.75;2.67;;;;;;;11.19;51.34;100542.03;5136949;27;20039;-83
2021/03/30 08:21:04;;;;;;;5.82;2.95;;;;;;;11.09;49.78;100525.78;5133826;27;20096;-83
2021/03/30 08:24:06;;;;;;;9.77;3.28;;;;;;;11.27;50.59;100543.97;5133795;27;20104;-83
2021/03/30 08:26:36;;;;;;;11.25;3.35;;;;;;;11.45;50.51;100552.16;5132777;27;20058;-83
2021/03/30 08:29:10;;;;;;;12.50;3.70;;;;;;;11.46;51.92;100534.81;5140809;27;20046;-83
2021/03/30 08:31:40;;;;;;;6.45;3.35;;;;;;;11.56;49.71;100551.91;5131653;27;20050;-83
2021/03/30 08:34:22;;;;;;;5.63;3.15;;;;;;;11.44;49.47;100529.50;5146185;27;20554;-84
2021/03/30 08:36:50;;;;;;;8.55;3.60;;;;;;;11.64;49.92;100553.84;5139646;27;20054;-84
2021/03/30 08:39:38;;;;;;;12.35;3.88;;;;;;;11.58;49.54;100538.97;5130763;27;20047;-83
2021/03/30 08:42:14;;;;;;;12.52;3.70;;;;;;;11.65;49.66;100522.84;5130395;27;20051;-84
2021/03/30 08:44:47;;;;;;;9.18;5.78;;;;;;;11.74;49.38;100532.78;5129685;27;20043;-82
2021/03/30 08:47:32;;;;;;;7.15;3.88;;;;;;;11.80;50.05;100534.03;5131532;28;20055;-82
2021/03/30 08:50:27;;;;;;;6.18;3.58;;;;;;;12.00;49.94;100529.28;5130852;27;20134;-83
2021/03/30 08:53:00;;;;;;;8.85;4.00;;;;;;;12.10;48.81;100520.97;5117708;27;20423;-82
2021/03/30 08:55:28;;;;;;;6.80;3.33;;;;;;;12.16;48.47;100533.94;5135047;27;20046;-83
2021/03/30 08:57:56;;;;;;;8.40;3.28;;;;;;;12.16;48.89;100523.03;5132906;27;20048;-82
2021/03/30 09:00:23;;;;;;;6.57;3.42;;;;;;;12.27;48.86;100533.69;5136734;27;20089;-83
2021/03/30 09:03:03;;;;;;;8.45;3.78;;;;;;;12.47;49.92;100531.56;5136828;27;20055;-82
2021/03/30 09:05:37;;;;;;;6.68;3.40;;;;;;;12.70;48.67;100530.94;5136291;27;20082;-83
2021/03/30 09:08:03;;;;;;;10.52;3.72;;;;;;;12.81;48.15;100527.06;5137226;27;20097;-79
2021/03/30 09:10:30;;;;;;;11.18;3.55;;;;;;;12.78;47.63;100513.75;5136788;27;20138;-79
2021/03/30 09:13:10;;;;;;;9.18;3.35;;;;;;;13.01;49.17;100522.19;5119638;27;20055;-79
2021/03/30 09:15:36;;;;;;;7.78;3.70;;;;;;;13.13;46.30;100534.47;5123740;27;20414;-78
2021/03/30 09:18:02;;;;;;;12.68;3.40;;;;;;;13.25;46.99;100530.41;5133786;27;20051;-81
2021/03/30 09:20:33;;;;;;;32.72;4.57;;;;;;;13.24;46.03;100498.63;5113907;27;20062;-79
2021/03/30 09:23:04;;;;;;;17.13;3.40;;;;;;;13.38;45.39;100508.09;5134544;27;20046;-79
2021/03/30 09:25:36;;;;;;;9.70;4.18;;;;;;;13.55;46.13;100519.00;5149694;27;20129;-79
2021/03/30 09:28:14;;;;;;;10.23;3.08;;;;;;;13.70;45.38;100522.75;5157290;27;20054;-79
2021/03/30 09:30:43;;;;;;;9.35;3.67;;;;;;;13.80;46.52;100501.56;5137941;27;20559;-78
2021/03/30 09:33:10;;;;;;;9.65;3.97;;;;;;;14.07;46.20;100506.81;5136605;27;20501;-79
2021/03/30 09:35:37;;;;;;;8.00;3.42;;;;;;;14.23;44.87;100512.22;5135800;27;20058;-79
2021/03/30 09:38:05;;;;;;;17.58;3.90;;;;;;;14.34;44.21;100492.69;5153210;27;20055;-79
2021/03/30 09:40:38;;;;;;;8.23;3.70;;;;;;;14.54;43.99;100513.31;5147618;27;20053;-79
2021/03/30 09:43:10;;;;;;;7.47;2.88;;;;;;;14.49;43.42;100486.47;5136395;27;20138;-79
2021/03/30 09:45:42;;;;;;;8.10;3.63;;;;;;;14.65;43.42;100505.59;5144666;27;20141;-79
2021/03/30 09:48:13;;;;;;;12.55;3.70;;;;;;;14.72;42.86;100477.50;5151797;27;20051;-79
2021/03/30 09:50:54;;;;;;;5.90;3.47;;;;;;;14.89;42.51;100503.75;5133236;27;20043;-79
2021/03/30 09:53:38;;;;;;;7.45;3.67;;;;;;;14.98;42.57;100482.63;5136407;27;20410;-79
2021/03/30 09:56:05;;;;;;;10.45;3.45;;;;;;;15.28;41.52;100483.63;5122010;27;20506;-79
2021/03/30 09:58:32;;;;;;;8.40;3.50;;;;;;;15.55;41.22;100484.94;5130695;27;20167;-79
2021/03/30 10:01:02;;;;;;;12.02;4.03;;;;;;;15.57;41.53;100480.09;5136253;27;20043;-79
2021/03/30 10:03:29;;;;;;;9.52;3.70;;;;;;;15.70;41.18;100475.88;5136345;27;20051;-79
2021/03/30 10:06:01;;;;;;;10.35;4.18;;;;;;;15.73;40.60;100473.63;5134428;27;20498;-79
2021/03/30 10:08:29;;;;;;;7.05;3.47;;;;;;;15.74;39.61;100467.06;5142848;27;20104;-80
2021/03/30 10:10:58;;;;;;;8.25;2.55;;;;;;;16.05;39.57;100478.97;5135787;27;20142;-79
2021/03/30 10:13:29;;;;;;;12.43;3.63;;;;;;;16.10;40.53;100462.78;5135912;27;20465;-79
2021/03/30 10:15:57;;;;;;;9.05;3.35;;;;;;;16.38;38.35;100479.44;5135240;27;20495;-79
2021/03/30 10:18:27;;;;;;;11.23;3.30;;;;;;;16.48;38.02;100461.81;5135584;27;20047;-82
2021/03/30 10:20:59;;;;;;;12.00;3.00;;;;;;;16.56;38.54;100454.34;5116785;22;20040;-81
2021/03/30 10:23:33;;;;;;;13.75;3.28;;;;;;;16.55;37.90;100443.53;5084127;28;20377;-81
2021/03/30 10:26:13;;;;;;;7.97;3.28;;;;;;;16.78;38.08;100462.59;5094069;28;20087;-81
2021/03/30 10:28:40;;;;;;;;;;;;;;;16.88;38.89;100460.41;5095827;28;20044;-81
2021/03/30 10:31:10;;;;;;;8.35;3.17;;;;;;;17.05;37.71;100455.50;5114123;27;20038;-82
2021/03/30 10:33:40;;;;;;;8.73;3.22;;;;;;;17.12;36.21;100428.97;5407140;22;20135;-81
2021/03/30 10:36:09;;;;;;;8.85;3.90;;;;;;;17.32;35.73;100459.38;5098555;22;20051;-81
2021/03/30 10:38:39;;;;;;;11.02;3.30;;;;;;;17.36;35.67;100456.22;5077316;28;20045;-81
2021/03/30 10:41:07;;;;;;;6.47;3.17;;;;;;;17.47;35.64;100445.53;5106936;28;20510;-81
2021/03/30 10:43:35;;;;;;;5.55;2.47;;;;;;;17.58;34.82;100433.13;5115128;28;20317;-81
2021/03/30 10:46:16;;;;;;;6.60;3.00;;;;;;;17.73;37.80;100446.78;5113759;28;20055;-81
2021/03/30 10:49:04;;;;;;;8.27;3.38;;;;;;;17.99;34.31;100440.66;5095745;28;20763;-81
2021/03/30 10:52:11;;;;;;;8.45;3.42;;;;;;;18.08;34.79;100443.22;5094351;28;20488;-80
2021/03/30 10:54:46;;;;;;;11.07;2.55;;;;;;;18.10;33.22;100425.47;5093206;28;20131;-81
2021/03/30 10:57:14;;;;;;;11.35;3.90;;;;;;;18.42;33.24;100423.06;5094282;28;20096;-81
2021/03/30 10:59:41;;;;;;;9.35;3.70;;;;;;;18.34;31.37;100421.34;5096109;28;20048;-81
2021/03/30 11:02:11;;;;;;;13.75;2.85;;;;;;;18.31;31.70;100408.00;5091717;28;20036;-80
2021/03/30 11:04:38;;;;;;;6.00;2.90;;;;;;;18.44;31.66;100401.72;5091413;28;20131;-80
2021/03/30 11:07:05;;;;;;;6.18;3.60;;;;;;;18.68;30.69;100403.06;5091757;28;20393;-81
2021/03/30 11:09:32;;;;;;;7.65;2.70;;;;;;;18.98;30.79;100407.38;5091827;28;20047;-80
2021/03/30 11:12:03;;;;;;;8.52;2.92;;;;;;;19.23;29.43;100416.72;5071780;28;20099;-81
2021/03/30 11:14:33;;;;;;;6.75;2.90;;;;;;;19.36;28.56;100398.47;5087539;28;20139;-81
2021/03/30 11:17:00;;;;;;;6.38;2.95;;;;;;;19.45;28.03;100400.81;5092583;28;20048;-81
2021/03/30 11:19:29;;;;;;;4.40;2.60;;;;;;;19.40;27.55;100386.81;5092375;28;20044;-81
2021/03/30 11:21:56;;;;;;;3.70;2.30;;;;;;;19.35;27.60;100396.78;5095554;28;20144;-81
2021/03/30 11:24:23;;;;;;;4.55;2.05;;;;;;;19.51;27.85;100393.59;5090516;28;20058;-81
2021/03/30 11:26:53;;;;;;;6.68;1.90;;;;;;;19.63;27.47;100379.97;5090499;28;20580;-81
2021/03/30 11:29:27;;;;;;;9.00;1.98;;;;;;;19.76;24.98;100381.88;5089339;28;20044;-81
2021/03/30 11:34:41;;;;;;;3.65;1.50;;;;;;;19.89;25.65;100376.38;5091729;28;20094;-81
2021/03/30 11:37:17;;;;;;;7.00;2.22;;;;;;;20.21;27.34;100394.94;5113673;28;20378;-80
2021/03/30 11:39:47;;;;;;;5.97;2.20;;;;;;;20.29;23.97;100387.28;5114048;28;20047;-81
2021/03/30 11:42:17;;;;;;;4.00;1.85;;;;;;;20.32;23.69;100381.31;5102617;28;20548;-80
2021/03/30 11:44:45;;;;;;;6.40;1.92;;;;;;;20.41;24.11;100378.28;5076426;28;20508;-80
2021/03/30 11:47:13;;;;;;;3.38;2.03;;;;;;;20.36;24.09;100356.00;5075090;28;20821;-82
2021/03/30 11:49:57;;;;;;;9.70;2.15;;;;;;;20.50;23.11;100379.72;5076328;28;20073;-80
2021/03/30 11:55:11;;;;;;;6.45;2.30;;;;;;;20.80;24.34;100374.47;5084029;28;20044;-81
2021/03/30 11:57:55;;;;;;;6.93;2.47;;;;;;;20.79;25.74;100347.03;5093088;28;20494;-81
2021/03/30 12:00:26;;;;;;;9.55;3.30;;;;;;;21.08;27.78;100364.09;5081814;28;20059;-80
2021/03/30 12:02:55;;;;;;;6.65;2.60;;;;;;;21.07;24.00;100357.69;5080533;28;20043;-80
2021/03/30 12:05:22;;;;;;;4.85;2.45;;;;;;;21.11;23.92;100356.16;5111006;28;20054;-81